Time;durP1;ratioP1;P1;durP2;ratioP2;P2;SDS_P1;SDS_P2;PMS_P1;PMS_P2;Temp;Humidity;BMP_temperature;BMP_pressure;BME280_temperature;BME280_humidity;BME280_pressure;Samples;Min_cycle;Max_cycle;Signal;HPM_P1;HPM_P2
2023/09/27 00:01:22;;;;;;;;;;;;;;;-147.89;100.00;60788.38;4231075;28;20335;-68
2023/09/27 00:03:23;;;;;;;;;;;;;;;-147.89;100.00;60788.38;4231349;28;19924;-68
2023/09/27 00:05:25;;;;;;;;;;;;;;;-147.89;100.00;60788.38;4231050;28;19976;-68
2023/09/27 00:07:27;;;;;;;;;;;;;;;-147.89;100.00;60788.38;4231163;28;19985;-68
2023/09/27 00:09:30;;;;;;;;;;;;;;;-147.89;100.00;60788.38;4231003;28;19924;-68
2023/09/27 00:11:31;;;;;;;;;;;;;;;-147.89;100.00;60788.38;4230442;28;20011;-67
2023/09/27 00:13:33;;;;;;;;;;;;;;;-147.89;100.00;60788.38;4230788;28;19969;-67
2023/09/27 00:15:36;;;;;;;;;;;;;;;-147.89;100.00;60788.38;4230977;28;19981;-67
2023/09/27 00:17:38;;;;;;;;;;;;;;;-147.89;100.00;60788.38;4230696;28;19971;-67
2023/09/27 00:19:40;;;;;;;;;;;;;;;-147.89;100.00;60788.38;4231055;28;20258;-67
2023/09/27 00:21:41;;;;;;;;;;;;;;;-147.89;100.00;60788.38;4230696;28;19977;-68
2023/09/27 00:23:43;;;;;;;;;;;;;;;-147.89;100.00;60788.38;4230974;28;19928;-67
2023/09/27 00:25:44;;;;;;;;;;;;;;;-147.89;100.00;60788.38;4230462;28;19923;-67
2023/09/27 00:27:46;;;;;;;;;;;;;;;-147.89;100.00;60788.38;4230846;28;19951;-68
2023/09/27 00:29:48;;;;;;;;;;;;;;;-147.89;100.00;60788.38;4230840;28;20376;-68
2023/09/27 00:31:49;;;;;;;;;;;;;;;-147.89;100.00;60788.38;4230864;28;19949;-67
2023/09/27 00:33:51;;;;;;;;;;;;;;;-147.89;100.00;60788.38;4230576;28;20289;-67
2023/09/27 00:35:53;;;;;;;;;;;;;;;-147.89;100.00;60788.38;4230481;28;20019;-68
2023/09/27 00:37:54;;;;;;;;;;;;;;;-147.89;100.00;60788.38;4230645;28;20403;-67
2023/09/27 00:39:56;;;;;;;;;;;;;;;-147.89;100.00;60788.38;4230306;28;19928;-67
2023/09/27 00:41:57;;;;;;;;;;;;;;;-147.89;100.00;60788.38;4230544;28;20427;-67
2023/09/27 00:43:59;;;;;;;;;;;;;;;-147.89;100.00;60788.38;4230870;28;20415;-67
2023/09/27 00:46:02;;;;;;;;;;;;;;;-147.89;100.00;60788.38;4230641;28;19955;-67
2023/09/27 00:48:04;;;;;;;;;;;;;;;-147.89;100.00;60788.38;4230779;28;19935;-68
2023/09/27 00:50:08;;;;;;;;;;;;;;;-147.89;100.00;60788.38;4230601;28;19931;-67
2023/09/27 00:52:12;;;;;;;;;;;;;;;-147.89;100.00;60788.38;4230340;28;19973;-67
2023/09/27 00:54:14;;;;;;;;;;;;;;;-147.89;100.00;60788.38;4230297;28;19924;-67
2023/09/27 00:56:16;;;;;;;;;;;;;;;-147.89;100.00;60788.38;4230565;28;19927;-68
2023/09/27 00:58:19;;;;;;;;;;;;;;;-147.89;100.00;60788.38;4230398;28;20006;-67
2023/09/27 01:00:23;;;;;;;;;;;;;;;-147.89;100.00;60788.38;4230580;28;19930;-67
2023/09/27 01:02:24;;;;;;;;;;;;;;;-147.89;100.00;60788.38;4230758;28;20411;-67
2023/09/27 01:04:26;;;;;;;;;;;;;;;-147.89;100.00;60788.38;4230357;28;19936;-67
2023/09/27 01:06:28;;;;;;;;;;;;;;;-147.89;100.00;60788.38;4230868;28;20377;-67
2023/09/27 01:08:29;;;;;;;;;;;;;;;-147.89;100.00;60788.38;4233467;28;19963;-68
2023/09/27 01:10:31;;;;;;;;;;;;;;;-147.89;100.00;60788.38;4233840;28;19931;-67
2023/09/27 01:12:33;;;;;;;;;;;;;;;-147.89;100.00;60788.38;4215801;28;19924;-67
2023/09/27 01:14:34;;;;;;;;;;;;;;;-147.89;100.00;60788.38;4233560;28;19963;-66
2023/09/27 01:16:36;;;;;;;;;;;;;;;-147.89;100.00;60788.38;4233438;28;20392;-67
2023/09/27 01:18:38;;;;;;;;;;;;;;;-147.89;100.00;60788.38;4233596;28;19930;-67
2023/09/27 01:20:45;;;;;;;;;;;;;;;-147.89;100.00;60788.38;4233700;28;20011;-67
2023/09/27 01:22:54;;;;;;;;;;;;;;;-147.89;100.00;60788.38;4233035;28;20416;-67
2023/09/27 01:24:56;;;;;;;;;;;;;;;-147.89;100.00;60788.38;4233653;28;19923;-67
2023/09/27 01:26:59;;;;;;;;;;;;;;;-147.89;100.00;60788.38;4233557;28;19924;-67
2023/09/27 01:29:00;;;;;;;;;;;;;;;-147.89;100.00;60788.38;4233521;28;19928;-67
2023/09/27 01:31:07;;;;;;;;;;;;;;;-147.89;100.00;60788.38;4233576;28;19966;-67
2023/09/27 01:33:14;;;;;;;;;;;;;;;-147.89;100.00;60788.38;4233320;28;19930;-67
2023/09/27 01:35:15;;;;;;;;;;;;;;;-147.89;100.00;60788.38;4233422;28;20415;-67
2023/09/27 01:37:17;;;;;;;;;;;;;;;-147.89;100.00;60788.38;4232963;28;19932;-67
2023/09/27 01:39:19;;;;;;;;;;;;;;;-147.89;100.00;60788.38;4233423;28;20008;-67
2023/09/27 01:41:20;;;;;;;;;;;;;;;-147.89;100.00;60788.38;4233267;28;19963;-67
2023/09/27 01:43:22;;;;;;;;;;;;;;;-147.89;100.00;60788.38;4233082;28;19931;-67
2023/09/27 01:45:29;;;;;;;;;;;;;;;-147.89;100.00;60788.38;4233207;28;19969;-68
2023/09/27 01:47:31;;;;;;;;;;;;;;;-147.89;100.00;60788.38;4233372;28;20416;-67
2023/09/27 01:49:32;;;;;;;;;;;;;;;-147.89;100.00;60788.38;4233326;28;20015;-67
2023/09/27 01:51:34;;;;;;;;;;;;;;;-147.89;100.00;60788.38;4232742;28;20339;-67
2023/09/27 01:53:36;;;;;;;;;;;;;;;-147.89;100.00;60788.38;4232968;28;19935;-67
2023/09/27 01:55:42;;;;;;;;;;;;;;;-147.89;100.00;60788.38;4233018;28;19924;-67
2023/09/27 01:57:46;;;;;;;;;;;;;;;-147.89;100.00;60788.38;4232919;28;19962;-68
2023/09/27 01:59:48;;;;;;;;;;;;;;;-147.89;100.00;60788.38;4233143;28;19923;-68
2023/09/27 02:01:50;;;;;;;;;;;;;;;-147.89;100.00;60788.38;4233008;28;19928;-67
2023/09/27 02:03:51;;;;;;;;;;;;;;;-147.89;100.00;60788.38;4233044;28;20625;-67
2023/09/27 02:05:53;;;;;;;;;;;;;;;-147.89;100.00;60788.38;4232838;28;19924;-68
2023/09/27 02:07:55;;;;;;;;;;;;;;;-147.89;100.00;60788.38;4232607;28;20337;-67
2023/09/27 02:09:56;;;;;;;;;;;;;;;-147.89;100.00;60788.38;4232738;28;19950;-68
2023/09/27 02:11:58;;;;;;;;;;;;;;;-147.89;100.00;60788.38;4232531;28;19954;-68
2023/09/27 02:14:03;;;;;;;;;;;;;;;-147.89;100.00;60788.38;4232706;28;19977;-68
2023/09/27 02:16:05;;;;;;;;;;;;;;;-147.89;100.00;60788.38;4232725;28;19955;-67
2023/09/27 02:18:07;;;;;;;;;;;;;;;-147.89;100.00;60788.38;4232096;28;20056;-67
2023/09/27 02:20:10;;;;;;;;;;;;;;;-147.89;100.00;60788.38;4232372;28;19923;-67
2023/09/27 02:22:13;;;;;;;;;;;;;;;-147.89;100.00;60788.38;4232249;28;19928;-67
2023/09/27 02:24:16;;;;;;;;;;;;;;;-147.89;100.00;60788.38;4232757;28;20411;-67
2023/09/27 02:26:18;;;;;;;;;;;;;;;-147.89;100.00;60788.38;4232440;28;19965;-67
2023/09/27 02:28:20;;;;;;;;;;;;;;;-147.89;100.00;60788.38;4232605;28;20007;-68
2023/09/27 02:30:21;;;;;;;;;;;;;;;-147.89;100.00;60788.38;4232595;28;20381;-67
2023/09/27 02:32:23;;;;;;;;;;;;;;;-147.89;100.00;60788.38;4232593;28;19924;-67
2023/09/27 02:34:25;;;;;;;;;;;;;;;-147.89;100.00;60788.38;4232564;28;19924;-68
2023/09/27 02:36:26;;;;;;;;;;;;;;;-147.89;100.00;60788.38;4232148;28;19931;-67
2023/09/27 02:38:28;;;;;;;;;;;;;;;-147.89;100.00;60788.38;4232430;28;19978;-67
2023/09/27 02:40:30;;;;;;;;;;;;;;;-147.89;100.00;60788.38;4232376;28;19932;-67
2023/09/27 02:42:31;;;;;;;;;;;;;;;-147.89;100.00;60788.38;4232508;28;20023;-68
2023/09/27 02:44:33;;;;;;;;;;;;;;;-147.89;100.00;60788.38;4232167;28;20014;-67
2023/09/27 02:46:34;;;;;;;;;;;;;;;-147.89;100.00;60788.38;4232050;28;20026;-68
2023/09/27 02:48:36;;;;;;;;;;;;;;;-147.89;100.00;60788.38;4232215;28;19924;-67
2023/09/27 02:50:46;;;;;;;;;;;;;;;-147.89;100.00;60788.38;4231867;28;19924;-67
2023/09/27 02:52:48;;;;;;;;;;;;;;;-147.89;100.00;60788.38;4232045;28;19973;-67
2023/09/27 02:54:50;;;;;;;;;;;;;;;-147.89;100.00;60788.38;4232038;28;20010;-67
2023/09/27 02:56:52;;;;;;;;;;;;;;;-147.89;100.00;60788.38;4231996;28;19981;-67
2023/09/27 02:58:54;;;;;;;;;;;;;;;-147.89;100.00;60788.38;4232346;28;19924;-67
2023/09/27 03:00:55;;;;;;;;;;;;;;;-147.89;100.00;60788.38;4232011;28;19924;-67
2023/09/27 03:03:03;;;;;;;;;;;;;;;-147.89;100.00;60788.38;4232136;28;19927;-68
2023/09/27 03:05:07;;;;;;;;;;;;;;;-147.89;100.00;60788.38;4231722;28;20381;-67
2023/09/27 03:07:09;;;;;;;;;;;;;;;-147.89;100.00;60788.38;4231921;28;19928;-67
2023/09/27 03:09:13;;;;;;;;;;;;;;;-147.89;100.00;60788.38;4231825;28;19934;-67
2023/09/27 03:11:15;;;;;;;;;;;;;;;-147.89;100.00;60788.38;4231879;28;20018;-67
2023/09/27 03:13:17;;;;;;;;;;;;;;;-147.89;100.00;60788.38;4231987;28;20381;-66
2023/09/27 03:15:19;;;;;;;;;;;;;;;-147.89;100.00;60788.38;4231661;28;19924;-67
2023/09/27 03:17:21;;;;;;;;;;;;;;;-147.89;100.00;60788.38;4231687;28;19947;-66
2023/09/27 03:19:22;;;;;;;;;;;;;;;-147.89;100.00;60788.38;4231540;28;20274;-66
2023/09/27 03:21:24;;;;;;;;;;;;;;;-147.89;100.00;60788.38;4231380;28;19924;-66
2023/09/27 03:23:27;;;;;;;;;;;;;;;-147.89;100.00;60788.38;4231521;28;19930;-66
2023/09/27 03:25:28;;;;;;;;;;;;;;;-147.89;100.00;60788.38;4231349;28;19930;-67
2023/09/27 03:27:30;;;;;;;;;;;;;;;-147.89;100.00;60788.38;4231512;28;19930;-67
2023/09/27 03:29:32;;;;;;;;;;;;;;;-147.89;100.00;60788.38;4231784;28;20486;-67
2023/09/27 03:31:34;;;;;;;;;;;;;;;-147.89;100.00;60788.38;4231506;28;19930;-69
2023/09/27 03:33:36;;;;;;;;;;;;;;;-147.89;100.00;60788.38;4231316;28;19924;-67
2023/09/27 03:35:38;;;;;;;;;;;;;;;-147.89;100.00;60788.38;4231431;28;19928;-67
2023/09/27 03:37:39;;;;;;;;;;;;;;;-147.89;100.00;60788.38;4213473;28;19932;-67
2023/09/27 03:39:41;;;;;;;;;;;;;;;-147.89;100.00;60788.38;4231631;28;19923;-66
2023/09/27 03:41:43;;;;;;;;;;;;;;;-147.89;100.00;60788.38;4231612;28;20297;-66
2023/09/27 03:43:44;;;;;;;;;;;;;;;-147.89;100.00;60788.38;4231559;28;20014;-67
2023/09/27 03:45:46;;;;;;;;;;;;;;;-147.89;100.00;60788.38;4231329;28;19930;-66
2023/09/27 03:47:48;;;;;;;;;;;;;;;-147.89;100.00;60788.38;4231007;28;20467;-68
2023/09/27 03:49:50;;;;;;;;;;;;;;;-147.89;100.00;60788.38;4231303;28;19927;-68
2023/09/27 03:51:51;;;;;;;;;;;;;;;-147.89;100.00;60788.38;4231385;28;19931;-69
2023/09/27 03:53:53;;;;;;;;;;;;;;;-147.89;100.00;60788.38;4231286;28;19934;-69
2023/09/27 03:55:54;;;;;;;;;;;;;;;-147.89;100.00;60788.38;4231266;28;19924;-66
2023/09/27 03:57:56;;;;;;;;;;;;;;;-147.89;100.00;60788.38;4231077;28;19928;-69
2023/09/27 03:59:58;;;;;;;;;;;;;;;-147.89;100.00;60788.38;4246976;27;19928;-66
2023/09/27 04:02:01;;;;;;;;;;;;;;;-147.89;100.00;60788.38;4230951;28;19924;-69
2023/09/27 04:04:04;;;;;;;;;;;;;;;-147.89;100.00;60788.38;4231280;28;19923;-68
2023/09/27 04:06:06;;;;;;;;;;;;;;;-147.89;100.00;60788.38;4231024;28;19924;-69
2023/09/27 04:08:08;;;;;;;;;;;;;;;-147.89;100.00;60788.38;4231078;28;19931;-69
2023/09/27 04:10:09;;;;;;;;;;;;;;;-147.89;100.00;60788.38;4231045;28;20446;-69
2023/09/27 04:12:11;;;;;;;;;;;;;;;-147.89;100.00;60788.38;4213044;28;19924;-69
2023/09/27 04:14:13;;;;;;;;;;;;;;;-147.89;100.00;60788.38;4212901;28;20023;-67
2023/09/27 04:16:15;;;;;;;;;;;;;;;-147.89;100.00;60788.38;4230849;28;19985;-69
2023/09/27 04:18:19;;;;;;;;;;;;;;;-147.89;100.00;60788.38;4230606;28;20354;-69
2023/09/27 04:20:21;;;;;;;;;;;;;;;-147.89;100.00;60788.38;4212883;28;19924;-68
2023/09/27 04:22:23;;;;;;;;;;;;;;;-147.89;100.00;60788.38;4230739;28;19927;-66
2023/09/27 04:24:25;;;;;;;;;;;;;;;-147.89;100.00;60788.38;4230705;28;20011;-68
2023/09/27 04:26:27;;;;;;;;;;;;;;;-147.89;100.00;60788.38;4230941;28;19924;-68
2023/09/27 04:28:28;;;;;;;;;;;;;;;-147.89;100.00;60788.38;4230631;28;19924;-68
2023/09/27 04:30:30;;;;;;;;;;;;;;;-147.89;100.00;60788.38;4230767;28;19924;-69
2023/09/27 04:32:31;;;;;;;;;;;;;;;-147.89;100.00;60788.38;4230649;28;20230;-68
2023/09/27 04:34:33;;;;;;;;;;;;;;;-147.89;100.00;60788.38;4230647;28;19934;-69
2023/09/27 04:36:34;;;;;;;;;;;;;;;-147.89;100.00;60788.38;4230782;28;19973;-67
2023/09/27 04:38:36;;;;;;;;;;;;;;;-147.89;100.00;60788.38;4230841;28;19984;-68
2023/09/27 04:40:38;;;;;;;;;;;;;;;-147.89;100.00;60788.38;4230608;28;19924;-67
2023/09/27 04:42:43;;;;;;;;;;;;;;;-147.89;100.00;60788.38;4230310;28;19927;-67
2023/09/27 04:44:46;;;;;;;;;;;;;;;-147.89;100.00;60788.38;4230396;28;20290;-67
2023/09/27 04:46:47;;;;;;;;;;;;;;;-147.89;100.00;60788.38;4230287;28;20351;-68
2023/09/27 04:48:50;;;;;;;;;;;;;;;-147.89;100.00;60788.38;4230711;28;19928;-67
2023/09/27 04:50:52;;;;;;;;;;;;;;;-147.89;100.00;60788.38;4230717;28;19927;-67
2023/09/27 04:52:54;;;;;;;;;;;;;;;-147.89;100.00;60788.38;4230555;28;19928;-67
2023/09/27 04:54:56;;;;;;;;;;;;;;;-147.89;100.00;60788.38;4246229;28;19931;-67
2023/09/27 04:56:58;;;;;;;;;;;;;;;-147.89;100.00;60788.38;4230713;28;19955;-67
2023/09/27 04:59:04;;;;;;;;;;;;;;;-147.89;100.00;60788.38;4230537;28;19927;-67
2023/09/27 05:01:06;;;;;;;;;;;;;;;-147.89;100.00;60788.38;4230176;28;19924;-66
2023/09/27 05:03:08;;;;;;;;;;;;;;;-147.89;100.00;60788.38;4230675;28;19966;-67
2023/09/27 05:05:10;;;;;;;;;;;;;;;-147.89;100.00;60788.38;4230716;28;19928;-67
2023/09/27 05:07:12;;;;;;;;;;;;;;;-147.89;100.00;60788.38;4230576;28;20391;-67
2023/09/27 05:09:13;;;;;;;;;;;;;;;-147.89;100.00;60788.38;4246191;28;20407;-67
2023/09/27 05:11:15;;;;;;;;;;;;;;;-147.89;100.00;60788.38;4246434;28;19931;-67
2023/09/27 05:13:21;;;;;;;;;;;;;;;-147.89;100.00;60788.38;4212459;28;19931;-67
2023/09/27 05:15:22;;;;;;;;;;;;;;;-147.89;100.00;60788.38;4230205;28;19924;-67
2023/09/27 05:17:25;;;;;;;;;;;;;;;-147.89;100.00;60788.38;4230314;28;20312;-67
2023/09/27 05:19:26;;;;;;;;;;;;;;;-147.89;100.00;60788.38;4230579;28;20014;-67
2023/09/27 05:21:28;;;;;;;;;;;;;;;-147.89;100.00;60788.38;4230392;28;19923;-67
2023/09/27 05:23:30;;;;;;;;;;;;;;;-147.89;100.00;60788.38;4230428;28;19955;-68
2023/09/27 05:25:31;;;;;;;;;;;;;;;-147.89;100.00;60788.38;4230497;28;19930;-68
2023/09/27 05:27:34;;;;;;;;;;;;;;;-147.89;100.00;60788.38;4230267;28;19977;-67
2023/09/27 05:29:35;;;;;;;;;;;;;;;-147.89;100.00;60788.38;4229925;28;19963;-67
2023/09/27 05:31:37;;;;;;;;;;;;;;;-147.89;100.00;60788.38;4230310;28;20331;-67
2023/09/27 05:33:39;;;;;;;;;;;;;;;-147.89;100.00;60788.38;4230330;28;19924;-67
2023/09/27 05:35:41;;;;;;;;;;;;;;;-147.89;100.00;60788.38;4230464;28;20405;-67
2023/09/27 05:37:42;;;;;;;;;;;;;;;-147.89;100.00;60788.38;4230061;28;19931;-67
2023/09/27 05:39:44;;;;;;;;;;;;;;;-147.89;100.00;60788.38;4230422;28;19928;-67
2023/09/27 05:41:46;;;;;;;;;;;;;;;-147.89;100.00;60788.38;4230294;28;19963;-67
2023/09/27 05:43:47;;;;;;;;;;;;;;;-147.89;100.00;60788.38;4229709;28;20005;-67
2023/09/27 05:45:49;;;;;;;;;;;;;;;-147.89;100.00;60788.38;4230225;28;19934;-67
2023/09/27 05:47:50;;;;;;;;;;;;;;;-147.89;100.00;60788.38;4230544;28;19928;-67
2023/09/27 05:49:53;;;;;;;;;;;;;;;-147.89;100.00;60788.38;4230116;28;19932;-67
2023/09/27 05:51:55;;;;;;;;;;;;;;;-147.89;100.00;60788.38;4229951;28;19928;-67
2023/09/27 05:53:58;;;;;;;;;;;;;;;-147.89;100.00;60788.38;4231039;28;19963;-67
2023/09/27 05:56:03;;;;;;;;;;;;;;;-147.89;100.00;60788.38;4233088;28;20388;-66
2023/09/27 05:58:05;;;;;;;;;;;;;;;-147.89;100.00;60788.38;4232926;28;20364;-67
2023/09/27 06:00:15;;;;;;;;;;;;;;;-147.89;100.00;60788.38;4233047;28;19978;-67
2023/09/27 06:02:17;;;;;;;;;;;;;;;-147.89;100.00;60788.38;4232908;28;19924;-67
2023/09/27 06:04:19;;;;;;;;;;;;;;;-147.89;100.00;60788.38;4233042;28;19959;-67
2023/09/27 06:06:20;;;;;;;;;;;;;;;-147.89;100.00;60788.38;4233016;28;20317;-67
2023/09/27 06:08:22;;;;;;;;;;;;;;;-147.89;100.00;60788.38;4233067;28;20304;-66
2023/09/27 06:10:24;;;;;;;;;;;;;;;-147.89;100.00;60788.38;4232921;28;19934;-66
2023/09/27 06:12:26;;;;;;;;;;;;;;;-147.89;100.00;60788.38;4233116;28;19928;-67
2023/09/27 06:14:27;;;;;;;;;;;;;;;-147.89;100.00;60788.38;4232603;28;20288;-66
2023/09/27 06:16:29;;;;;;;;;;;;;;;-147.89;100.00;60788.38;4232613;28;19928;-67
2023/09/27 06:18:30;;;;;;;;;;;;;;;-147.89;100.00;60788.38;4232778;28;19928;-67
2023/09/27 06:20:32;;;;;;;;;;;;;;;-147.89;100.00;60788.38;4232809;28;20329;-66
2023/09/27 06:22:34;;;;;;;;;;;;;;;-147.89;100.00;60788.38;4232546;28;19928;-67
2023/09/27 06:24:36;;;;;;;;;;;;;;;-147.89;100.00;60788.38;4232646;28;19978;-67
2023/09/27 06:26:37;;;;;;;;;;;;;;;-147.89;100.00;60788.38;4232788;28;20318;-66
2023/09/27 06:28:39;;;;;;;;;;;;;;;-147.89;100.00;60788.38;4232314;28;20408;-68
2023/09/27 06:30:41;;;;;;;;;;;;;;;-147.89;100.00;60788.38;4232661;28;20371;-66
2023/09/27 06:32:42;;;;;;;;;;;;;;;-147.89;100.00;60788.38;4232584;28;19982;-66
2023/09/27 06:34:44;;;;;;;;;;;;;;;-147.89;100.00;60788.38;4232467;28;20019;-66
2023/09/27 06:36:49;;;;;;;;;;;;;;;-147.89;100.00;60788.38;4232623;28;19930;-69
2023/09/27 06:38:51;;;;;;;;;;;;;;;-147.89;100.00;60788.38;4232335;28;19934;-67
2023/09/27 06:40:54;;;;;;;;;;;;;;;-147.89;100.00;60788.38;4232453;28;20397;-67
2023/09/27 06:42:56;;;;;;;;;;;;;;;-147.89;100.00;60788.38;4232206;28;20349;-66
2023/09/27 06:44:58;;;;;;;;;;;;;;;-147.89;100.00;60788.38;4232340;28;20026;-66
2023/09/27 06:46:59;;;;;;;;;;;;;;;-147.89;100.00;60788.38;4232561;28;20352;-67
2023/09/27 06:49:04;;;;;;;;;;;;;;;-147.89;100.00;60788.38;4232345;28;19923;-67
2023/09/27 06:51:06;;;;;;;;;;;;;;;-147.89;100.00;60788.38;4232284;28;20349;-67
2023/09/27 06:53:07;;;;;;;;;;;;;;;-147.89;100.00;60788.38;4232361;28;20389;-67
2023/09/27 06:55:25;;;;;;;;;;;;;;;-147.89;100.00;60788.38;4232145;28;19927;-67
2023/09/27 06:57:26;;;;;;;;;;;;;;;-147.89;100.00;60788.38;4231807;28;19923;-67
2023/09/27 06:59:28;;;;;;;;;;;;;;;-147.89;100.00;60788.38;4213582;28;19928;-67
2023/09/27 07:01:30;;;;;;;;;;;;;;;-147.89;100.00;60788.38;4232268;28;20428;-67
2023/09/27 07:03:34;;;;;;;;;;;;;;;-147.89;100.00;60788.38;4232031;28;19924;-67
2023/09/27 07:05:36;;;;;;;;;;;;;;;-147.89;100.00;60788.38;4231793;28;19935;-67
2023/09/27 07:07:38;;;;;;;;;;;;;;;-147.89;100.00;60788.38;4231849;28;19977;-67
2023/09/27 07:09:40;;;;;;;;;;;;;;;-147.89;100.00;60788.38;4230789;28;19924;-67
2023/09/27 07:11:44;;;;;;;;;;;;;;;-147.89;100.00;60788.38;4231647;28;19924;-67
2023/09/27 07:13:46;;;;;;;;;;;;;;;-147.89;100.00;60788.38;4231683;28;20006;-67
2023/09/27 07:15:48;;;;;;;;;;;;;;;-147.89;100.00;60788.38;4231843;28;20416;-67
2023/09/27 07:17:49;;;;;;;;;;;;;;;-147.89;100.00;60788.38;4231731;28;19927;-67
2023/09/27 07:19:53;;;;;;;;;;;;;;;-147.89;100.00;60788.38;4231602;28;19930;-66
2023/09/27 07:21:57;;;;;;;;;;;;;;;-147.89;100.00;60788.38;4231591;28;19981;-66
2023/09/27 07:23:58;;;;;;;;;;;;;;;-147.89;100.00;60788.38;4231731;28;19930;-66
2023/09/27 07:26:00;;;;;;;;;;;;;;;-147.89;100.00;60788.38;4231191;28;19924;-67
2023/09/27 07:28:05;;;;;;;;;;;;;;;-147.89;100.00;60788.38;4231630;28;19930;-67
2023/09/27 07:30:10;;;;;;;;;;;;;;;-147.89;100.00;60788.38;4231625;28;19924;-66
2023/09/27 07:32:12;;;;;;;;;;;;;;;-147.89;100.00;60788.38;4231638;28;19945;-66
2023/09/27 07:34:13;;;;;;;;;;;;;;;-147.89;100.00;60788.38;4247419;27;19927;-67
2023/09/27 07:36:16;;;;;;;;;;;;;;;-147.89;100.00;60788.38;4231523;28;20466;-66
2023/09/27 07:38:18;;;;;;;;;;;;;;;-147.89;100.00;60788.38;4231367;28;19962;-66
2023/09/27 07:40:20;;;;;;;;;;;;;;;-147.89;100.00;60788.38;4231083;28;19928;-67
2023/09/27 07:42:21;;;;;;;;;;;;;;;-147.89;100.00;60788.38;4231256;28;20024;-67
2023/09/27 07:44:26;;;;;;;;;;;;;;;-147.89;100.00;60788.38;4231230;28;19923;-66
2023/09/27 07:46:29;;;;;;;;;;;;;;;-147.89;100.00;60788.38;4231646;28;19984;-67
2023/09/27 07:48:32;;;;;;;;;;;;;;;-147.89;100.00;60788.38;4231245;28;20018;-66
2023/09/27 07:50:37;;;;;;;;;;;;;;;-147.89;100.00;60788.38;4231250;28;19930;-66
2023/09/27 07:52:38;;;;;;;;;;;;;;;-147.89;100.00;60788.38;4231209;28;19924;-66
2023/09/27 07:54:40;;;;;;;;;;;;;;;-147.89;100.00;60788.38;4230639;28;19959;-66
2023/09/27 07:56:42;;;;;;;;;;;;;;;-147.89;100.00;60788.38;4231109;28;19924;-66
2023/09/27 07:58:44;;;;;;;;;;;;;;;-147.89;100.00;60788.38;4231273;28;19924;-67
2023/09/27 08:00:46;;;;;;;;;;;;;;;-147.89;100.00;60788.38;4231200;28;19930;-67
2023/09/27 08:02:50;;;;;;;;;;;;;;;-147.89;100.00;60788.38;4231238;28;20308;-66
2023/09/27 08:04:52;;;;;;;;;;;;;;;-147.89;100.00;60788.38;4231077;28;19923;-66
2023/09/27 08:06:54;;;;;;;;;;;;;;;-147.89;100.00;60788.38;4230620;28;19966;-67
2023/09/27 08:08:57;;;;;;;;;;;;;;;-147.89;100.00;60788.38;4229012;28;19928;-66
2023/09/27 08:11:00;;;;;;;;;;;;;;;-147.89;100.00;60788.38;4231102;28;19927;-66
2023/09/27 08:13:04;;;;;;;;;;;;;;;-147.89;100.00;60788.38;4226399;28;20063;-65
2023/09/27 08:15:06;;;;;;;;;;;;;;;-147.89;100.00;60788.38;4226031;28;20293;-63
2023/09/27 08:17:08;;;;;;;;;;;;;;;-147.89;100.00;60788.38;4222140;28;19931;-63
2023/09/27 08:19:09;;;;;;;;;;;;;;;-147.89;100.00;60788.38;4213227;28;19928;-68
2023/09/27 08:21:11;;;;;;;;;;;;;;;-147.89;100.00;60788.38;4224750;28;19930;-67
2023/09/27 08:23:13;;;;;;;;;;;;;;;-147.89;100.00;60788.38;4230128;28;19946;-65
2023/09/27 08:25:14;;;;;;;;;;;;;;;-147.89;100.00;60788.38;4230449;28;19930;-63
2023/09/27 08:27:17;;;;;;;;;;;;;;;-147.89;100.00;60788.38;4230871;28;20003;-64
2023/09/27 08:29:20;;;;;;;;;;;;;;;-147.89;100.00;60788.38;4229196;28;20003;-64
2023/09/27 08:31:22;;;;;;;;;;;;;;;-147.89;100.00;60788.38;4227247;28;19976;-65
2023/09/27 08:33:24;;;;;;;;;;;;;;;-147.89;100.00;60788.38;4228539;28;20274;-65
2023/09/27 08:35:26;;;;;;;;;;;;;;;-147.89;100.00;60788.38;4228014;28;19928;-65
2023/09/27 08:37:28;;;;;;;;;;;;;;;-147.89;100.00;60788.38;4227031;28;19928;-65
2023/09/27 08:39:30;;;;;;;;;;;;;;;-147.89;100.00;60788.38;4229327;28;19923;-64
2023/09/27 08:41:32;;;;;;;;;;;;;;;-147.89;100.00;60788.38;4223497;28;19924;-65
2023/09/27 08:43:34;;;;;;;;;;;;;;;-147.89;100.00;60788.38;4215682;28;20323;-63
2023/09/27 08:45:38;;;;;;;;;;;;;;;-147.89;100.00;60788.38;4223655;28;19935;-66
2023/09/27 08:47:41;;;;;;;;;;;;;;;-147.89;100.00;60788.38;4229555;28;19930;-65
2023/09/27 08:49:42;;;;;;;;;;;;;;;-147.89;100.00;60788.38;4217676;28;19924;-65
2023/09/27 08:51:45;;;;;;;;;;;;;;;-147.89;100.00;60788.38;4212912;28;20018;-63
2023/09/27 08:53:46;;;;;;;;;;;;;;;-147.89;100.00;60788.38;4212440;28;20694;-64
2023/09/27 08:55:53;;;;;;;;;;;;;;;-147.89;100.00;60788.38;4212993;28;19924;-64
2023/09/27 08:57:56;;;;;;;;;;;;;;;-147.89;100.00;60788.38;4221824;28;19931;-64
2023/09/27 09:00:06;;;;;;;;;;;;;;;-147.89;100.00;60788.38;4229506;28;20012;-64
2023/09/27 09:02:09;;;;;;;;;;;;;;;-147.89;100.00;60788.38;4229689;28;19927;-64
2023/09/27 09:04:11;;;;;;;;;;;;;;;-147.89;100.00;60788.38;4227285;28;20006;-64
2023/09/27 09:06:13;;;;;;;;;;;;;;;-147.89;100.00;60788.38;4229708;28;19924;-64
2023/09/27 09:08:15;;;;;;;;;;;;;;;-147.89;100.00;60788.38;4227117;28;20027;-64
2023/09/27 09:10:24;;;;;;;;;;;;;;;-147.89;100.00;60788.38;4229572;28;19935;-63
2023/09/27 09:12:26;;;;;;;;;;;;;;;-147.89;100.00;60788.38;4228509;28;20380;-64
2023/09/27 09:14:43;;;;;;;;;;;;;;;-147.89;100.00;60788.38;4224767;28;19982;-62
2023/09/27 09:16:51;;;;;;;;;;;;;;;-147.89;100.00;60788.38;4226026;28;20018;-63
2023/09/27 09:18:54;;;;;;;;;;;;;;;-147.89;100.00;60788.38;4229553;28;19946;-64
2023/09/27 09:21:08;;;;;;;;;;;;;;;-147.89;100.00;60788.38;4231900;28;19934;-63
2023/09/27 09:23:12;;;;;;;;;;;;;;;-147.89;100.00;60788.38;4227459;28;20440;-62
2023/09/27 09:25:14;;;;;;;;;;;;;;;-147.89;100.00;60788.38;4229514;28;20335;-62
2023/09/27 09:27:16;;;;;;;;;;;;;;;-147.89;100.00;60788.38;4229424;28;20304;-63
2023/09/27 09:29:20;;;;;;;;;;;;;;;-147.89;100.00;60788.38;4232918;28;19932;-62
2023/09/27 09:31:23;;;;;;;;;;;;;;;-147.89;100.00;60788.38;4232766;28;19928;-63
2023/09/27 09:33:24;;;;;;;;;;;;;;;-147.89;100.00;60788.38;4229789;28;19949;-66
2023/09/27 09:35:30;;;;;;;;;;;;;;;-147.89;100.00;60788.38;4239890;27;20027;-64
2023/09/27 09:37:33;;;;;;;;;;;;;;;-147.89;100.00;60788.38;4233232;27;19931;-64
2023/09/27 09:39:35;;;;;;;;;;;;;;;-147.89;100.00;60788.38;4231305;28;20018;-65
2023/09/27 09:41:44;;;;;;;;;;;;;;;-147.89;100.00;60788.38;4222752;28;19927;-64
2023/09/27 09:43:46;;;;;;;;;;;;;;;-147.89;100.00;60788.38;4227136;28;19947;-65
2023/09/27 09:45:49;;;;;;;;;;;;;;;-147.89;100.00;60788.38;4215155;28;20510;-65
2023/09/27 09:47:51;;;;;;;;;;;;;;;-147.89;100.00;60788.38;4216626;28;19967;-64
2023/09/27 09:49:53;;;;;;;;;;;;;;;-147.89;100.00;60788.38;4230432;28;19924;-61
2023/09/27 09:51:57;;;;;;;;;;;;;;;-147.89;100.00;60788.38;4231707;28;19924;-63
2023/09/27 09:53:59;;;;;;;;;;;;;;;-147.89;100.00;60788.38;4229863;28;19966;-64
2023/09/27 09:56:02;;;;;;;;;;;;;;;-147.89;100.00;60788.38;4232093;28;19934;-64
2023/09/27 09:58:25;;;;;;;;;;;;;;;-147.89;100.00;60788.38;4231778;28;20019;-62
2023/09/27 10:00:30;;;;;;;;;;;;;;;-147.89;100.00;60788.38;4231911;28;19935;-62
2023/09/27 10:02:32;;;;;;;;;;;;;;;-147.89;100.00;60788.38;4232133;28;19974;-61
2023/09/27 10:04:34;;;;;;;;;;;;;;;-147.89;100.00;60788.38;4229925;28;19950;-60
2023/09/27 10:06:38;;;;;;;;;;;;;;;-147.89;100.00;60788.38;4229495;28;19976;-60
2023/09/27 10:08:50;;;;;;;;;;;;;;;-147.89;100.00;60788.38;4231683;28;19924;-61
2023/09/27 10:10:52;;;;;;;;;;;;;;;-147.89;100.00;60788.38;4231127;28;20058;-62
2023/09/27 10:12:54;;;;;;;;;;;;;;;-147.89;100.00;60788.38;4231821;28;19924;-62
2023/09/27 10:14:56;;;;;;;;;;;;;;;-147.89;100.00;60788.38;4231687;28;20305;-64